createdAt,value
2018-12-27T00:01:46.815Z,101.30
2018-12-27T00:04:15.165Z,43.40
2018-12-27T00:06:43.870Z,154.67
2018-12-27T00:09:12.208Z,8.33
2018-12-27T00:11:40.664Z,10.47
2018-12-27T00:14:09.215Z,10.53
2018-12-27T00:16:37.878Z,23.20
2018-12-27T00:19:06.282Z,13.50
2018-12-27T00:21:34.633Z,15.97
2018-12-27T00:24:03.215Z,21.57
2018-12-27T00:26:31.416Z,26.43
2018-12-27T00:29:00.278Z,28.27
2018-12-27T00:31:29.080Z,21.73
2018-12-27T00:33:57.807Z,35.47
2018-12-27T00:36:26.223Z,14.53
2018-12-27T00:38:55.009Z,25.13
2018-12-27T00:41:23.394Z,18.10
2018-12-27T00:43:51.847Z,25.40
2018-12-27T00:46:20.235Z,15.80
2018-12-27T00:48:49.011Z,18.60
2018-12-27T00:51:17.497Z,12.27
2018-12-27T00:53:46.016Z,13.90
2018-12-27T00:56:14.585Z,14.40
2018-12-27T00:58:43.320Z,17.80
2018-12-27T01:01:11.744Z,18.73
2018-12-27T01:03:40.226Z,23.93
2018-12-27T01:06:08.622Z,10.37
2018-12-27T01:08:37.075Z,10.03
2018-12-27T01:11:05.601Z,10.00
2018-12-27T01:13:34.301Z,11.93
2018-12-27T01:16:02.908Z,14.07
2018-12-27T01:18:31.281Z,12.90
2018-12-27T01:20:59.691Z,11.27
2018-12-27T01:23:28.067Z,10.23
2018-12-27T01:25:56.578Z,10.67
2018-12-27T01:28:25.203Z,12.00
2018-12-27T01:30:53.766Z,11.83
2018-12-27T01:33:22.217Z,10.80
2018-12-27T01:35:50.637Z,13.20
2018-12-27T01:38:19.302Z,10.30
2018-12-27T01:40:47.784Z,9.53
2018-12-27T01:43:16.665Z,10.63
2018-12-27T01:45:45.034Z,10.50
2018-12-27T01:48:13.591Z,11.73
2018-12-27T01:50:42.165Z,10.53
2018-12-27T01:53:10.991Z,11.47
2018-12-27T01:55:39.538Z,11.53
2018-12-27T01:58:08.221Z,11.00
2018-12-27T02:00:36.852Z,9.63
2018-12-27T02:03:05.235Z,10.73
2018-12-27T02:05:34.160Z,11.70
2018-12-27T02:08:02.687Z,11.40
2018-12-27T02:10:31.058Z,9.13
2018-12-27T02:12:59.467Z,11.07
2018-12-27T02:15:28.038Z,11.17
2018-12-27T02:17:56.552Z,10.93
2018-12-27T02:20:25.199Z,9.67
2018-12-27T02:22:53.571Z,9.70
2018-12-27T02:25:22.136Z,8.53
2018-12-27T02:27:50.907Z,9.37
2018-12-27T02:30:19.292Z,10.17
2018-12-27T02:32:48.018Z,9.90
2018-12-27T02:35:16.441Z,9.17
2018-12-27T02:37:44.809Z,9.50
2018-12-27T02:40:13.490Z,10.47
2018-12-27T02:42:41.886Z,9.63
2018-12-27T02:45:10.396Z,9.70
2018-12-27T02:47:39.294Z,8.33
2018-12-27T02:50:08.012Z,8.30
2018-12-27T02:52:36.502Z,9.23
2018-12-27T02:55:04.942Z,11.17
2018-12-27T02:57:33.356Z,10.63
2018-12-27T03:00:01.897Z,9.97
2018-12-27T03:02:30.335Z,8.80
2018-12-27T03:04:58.967Z,6.63
2018-12-27T03:07:27.414Z,8.43
2018-12-27T03:09:56.251Z,8.90
2018-12-27T03:12:24.657Z,9.37
2018-12-27T03:14:53.524Z,9.57
2018-12-27T03:17:21.983Z,7.97
2018-12-27T03:19:50.668Z,9.43
2018-12-27T03:22:19.057Z,7.87
2018-12-27T03:24:47.429Z,8.17
2018-12-27T03:27:16.007Z,7.30
2018-12-27T03:29:44.546Z,7.60
2018-12-27T03:32:13.172Z,9.93
2018-12-27T03:34:42.609Z,8.07
2018-12-27T03:37:11.496Z,6.10
2018-12-27T03:39:40.437Z,8.33
2018-12-27T03:42:09.207Z,6.37
2018-12-27T03:44:37.928Z,6.57
2018-12-27T03:47:06.739Z,5.80
2018-12-27T03:49:35.513Z,6.87
2018-12-27T03:52:04.447Z,8.50
2018-12-27T03:54:33.502Z,6.83
2018-12-27T03:57:02.835Z,6.93
2018-12-27T03:59:31.724Z,8.37
2018-12-27T04:02:00.442Z,7.93
2018-12-27T04:04:29.472Z,7.50
2018-12-27T04:06:58.912Z,7.10
2018-12-27T04:09:27.804Z,7.17
2018-12-27T04:11:57.114Z,7.73
2018-12-27T04:14:26.175Z,6.67
2018-12-27T04:16:55.013Z,7.00
2018-12-27T04:19:23.582Z,10.53
2018-12-27T04:21:52.131Z,9.67
2018-12-27T04:24:20.518Z,8.00
2018-12-27T04:26:49.327Z,10.30
2018-12-27T04:29:17.819Z,7.53
2018-12-27T04:31:47.210Z,9.27
2018-12-27T04:34:16.067Z,8.40
2018-12-27T04:36:44.712Z,7.30
2018-12-27T04:39:13.364Z,9.27
2018-12-27T04:41:42.089Z,11.30
2018-12-27T04:44:10.767Z,5.50
2018-12-27T04:46:39.415Z,7.47
2018-12-27T04:49:08.221Z,7.87
2018-12-27T04:51:36.506Z,6.67
2018-12-27T04:54:04.650Z,8.97
2018-12-27T04:56:32.951Z,8.33
2018-12-27T04:59:01.115Z,9.60
2018-12-27T05:01:29.445Z,11.00
2018-12-27T05:03:57.635Z,11.13
2018-12-27T05:06:26.158Z,10.30
2018-12-27T05:08:54.781Z,8.77
2018-12-27T05:11:24.976Z,9.23
2018-12-27T05:13:53.221Z,5.67
2018-12-27T05:16:21.435Z,5.10
2018-12-27T05:18:50.091Z,7.57
2018-12-27T05:21:18.369Z,8.57
2018-12-27T05:23:46.525Z,7.67
2018-12-27T05:26:14.872Z,7.80
2018-12-27T05:28:43.031Z,7.07
2018-12-27T05:31:11.253Z,8.07
2018-12-27T05:33:39.439Z,8.83
2018-12-27T05:36:08.160Z,6.53
2018-12-27T05:38:36.928Z,7.03
2018-12-27T05:41:05.190Z,14.33
2018-12-27T05:43:34.103Z,17.43
2018-12-27T05:46:02.247Z,12.63
2018-12-27T05:48:30.713Z,8.57
2018-12-27T05:50:59.035Z,8.17
2018-12-27T05:53:27.379Z,10.80
2018-12-27T05:55:55.764Z,7.67
2018-12-27T05:58:23.922Z,7.47
2018-12-27T06:00:52.243Z,9.80
2018-12-27T06:03:20.651Z,8.90
2018-12-27T06:05:48.806Z,6.93
2018-12-27T06:08:17.340Z,6.13
2018-12-27T06:10:45.592Z,7.63
2018-12-27T06:13:13.873Z,8.73
2018-12-27T06:15:42.018Z,6.37
2018-12-27T06:20:56.231Z,5.37
2018-12-27T06:23:24.593Z,4.87
2018-12-27T06:25:53.032Z,4.43
2018-12-27T06:28:21.492Z,3.40
2018-12-27T06:30:49.860Z,3.70
2018-12-27T06:33:18.502Z,4.60
2018-12-27T06:35:46.893Z,5.70
2018-12-27T06:38:15.516Z,6.57
2018-12-27T06:40:44.059Z,7.20
2018-12-27T06:43:12.335Z,5.80
2018-12-27T06:45:40.555Z,7.33
2018-12-27T06:48:08.699Z,7.23
2018-12-27T06:50:36.939Z,5.93
2018-12-27T06:53:05.386Z,5.63
2018-12-27T06:55:33.615Z,6.60
2018-12-27T06:58:02.114Z,11.27
2018-12-27T07:00:30.681Z,14.53
2018-12-27T07:02:59.003Z,16.73
2018-12-27T07:05:27.747Z,17.57
2018-12-27T07:08:32.722Z,19.37
2018-12-27T07:11:01.074Z,18.23
2018-12-27T07:13:29.502Z,16.47
2018-12-27T07:15:58.162Z,18.03
2018-12-27T07:18:26.320Z,18.77
2018-12-27T07:20:54.565Z,17.60
2018-12-27T07:23:23.141Z,19.17
2018-12-27T07:25:51.671Z,7.40
2018-12-27T07:28:20.156Z,7.30
2018-12-27T07:30:48.489Z,8.07
2018-12-27T07:33:16.908Z,7.43
2018-12-27T07:35:48.294Z,7.30
2018-12-27T07:38:16.829Z,8.00
2018-12-27T07:40:45.419Z,11.93
2018-12-27T07:43:14.387Z,16.90
2018-12-27T07:45:42.583Z,17.87
2018-12-27T07:48:10.811Z,21.97
2018-12-27T07:50:39.177Z,22.43
2018-12-27T07:53:07.475Z,25.87
2018-12-27T07:55:35.854Z,16.27
2018-12-27T07:58:04.033Z,22.50
2018-12-27T08:00:32.223Z,36.37
2018-12-27T08:03:00.475Z,34.13
2018-12-27T08:05:28.979Z,38.20
2018-12-27T08:07:57.445Z,28.43
2018-12-27T08:10:27.266Z,31.67
2018-12-27T08:12:55.639Z,30.83
2018-12-27T08:15:24.072Z,27.73
2018-12-27T08:17:52.477Z,27.23
2018-12-27T08:20:21.398Z,25.37
2018-12-27T08:22:49.826Z,24.43
2018-12-27T08:25:18.225Z,18.67
2018-12-27T08:27:47.150Z,13.90
2018-12-27T08:30:15.278Z,9.97
2018-12-27T08:32:44.020Z,16.40
2018-12-27T08:35:12.656Z,32.17
2018-12-27T08:37:41.355Z,36.73
2018-12-27T08:40:10.087Z,32.70
2018-12-27T08:42:38.478Z,32.00
2018-12-27T08:45:07.245Z,15.90
2018-12-27T08:47:35.934Z,13.00
2018-12-27T08:50:06.810Z,28.60
2018-12-27T08:52:35.710Z,7.73
2018-12-27T08:55:05.244Z,7.50
2018-12-27T08:57:33.890Z,11.03
2018-12-27T09:00:02.635Z,14.00
2018-12-27T09:02:31.362Z,11.53
2018-12-27T09:04:59.823Z,11.33
2018-12-27T09:07:28.318Z,22.97
2018-12-27T09:09:56.825Z,13.17
2018-12-27T09:12:25.217Z,9.13
2018-12-27T09:14:54.068Z,10.87
2018-12-27T09:17:22.471Z,18.43
2018-12-27T09:19:50.866Z,15.27
2018-12-27T09:22:19.350Z,12.37
2018-12-27T09:24:47.951Z,14.20
2018-12-27T09:27:16.363Z,10.90
2018-12-27T09:29:45.029Z,10.37
2018-12-27T09:32:13.818Z,9.67
2018-12-27T09:34:42.745Z,8.20
2018-12-27T09:37:11.508Z,9.10
2018-12-27T09:39:39.890Z,9.33
2018-12-27T09:42:08.348Z,31.77
2018-12-27T09:44:37.183Z,11.63
2018-12-27T09:47:05.809Z,10.03
2018-12-27T09:49:34.626Z,10.03
2018-12-27T09:52:03.633Z,10.70
2018-12-27T09:54:32.023Z,20.37
2018-12-27T09:57:00.688Z,16.83
2018-12-27T09:59:30.714Z,19.60
2018-12-27T10:01:59.218Z,18.90
2018-12-27T10:04:27.683Z,18.63
2018-12-27T10:06:56.192Z,83.73
2018-12-27T10:09:24.621Z,24.47
2018-12-27T10:11:53.218Z,11.60
2018-12-27T10:14:21.727Z,13.00
2018-12-27T10:16:50.207Z,15.10
2018-12-27T10:19:18.901Z,11.63
2018-12-27T10:21:47.395Z,11.13
2018-12-27T10:24:15.785Z,25.10
2018-12-27T10:26:44.548Z,38.03
2018-12-27T10:29:13.395Z,19.00
2018-12-27T10:31:41.815Z,41.70
2018-12-27T10:34:10.191Z,25.23
2018-12-27T10:36:39.047Z,20.93
2018-12-27T10:39:07.700Z,40.10
2018-12-27T10:41:36.155Z,21.83
2018-12-27T10:44:04.798Z,22.37
2018-12-27T10:46:33.343Z,26.73
2018-12-27T10:49:02.339Z,24.63
2018-12-27T10:51:31.047Z,25.97
2018-12-27T10:53:59.784Z,65.37
2018-12-27T10:56:28.244Z,104.30
2018-12-27T10:58:57.091Z,50.87
2018-12-27T11:01:26.019Z,29.80
2018-12-27T11:03:54.437Z,26.07
2018-12-27T11:06:22.889Z,88.40
2018-12-27T11:08:51.998Z,70.57
2018-12-27T11:11:21.078Z,46.07
2018-12-27T11:13:51.949Z,53.70
2018-12-27T11:16:21.142Z,137.07
2018-12-27T11:18:50.126Z,65.70
2018-12-27T11:21:19.198Z,27.87
2018-12-27T11:23:57.494Z,27.80
2018-12-27T11:26:31.585Z,37.73
2018-12-27T11:29:04.449Z,24.60
2018-12-27T11:31:36.553Z,35.30
2018-12-27T11:34:07.935Z,28.20
2018-12-27T11:36:41.879Z,22.17
2018-12-27T11:39:10.695Z,40.67
2018-12-27T11:41:40.319Z,40.60
2018-12-27T11:44:08.719Z,37.50
2018-12-27T11:46:37.289Z,68.80
2018-12-27T11:49:08.709Z,61.63
2018-12-27T11:51:39.572Z,45.33
2018-12-27T11:54:12.727Z,71.87
2018-12-27T11:56:42.034Z,51.37
2018-12-27T11:59:11.452Z,42.17
2018-12-27T12:01:42.034Z,43.23
2018-12-27T12:04:11.066Z,35.27
2018-12-27T12:06:42.316Z,35.43
2018-12-27T12:09:11.756Z,75.50
2018-12-27T12:11:44.736Z,79.63
2018-12-27T12:14:15.361Z,36.13
2018-12-27T12:16:44.259Z,29.33
2018-12-27T12:19:14.170Z,16.97
2018-12-27T12:21:51.114Z,14.20
2018-12-27T12:24:21.561Z,27.00
2018-12-27T12:26:50.890Z,16.13
2018-12-27T12:29:21.053Z,56.47
2018-12-27T12:31:52.955Z,35.80
2018-12-27T12:34:22.069Z,48.77
2018-12-27T12:36:51.024Z,48.33
2018-12-27T12:39:28.927Z,173.20
2018-12-27T12:42:04.957Z,109.00
2018-12-27T12:44:35.102Z,70.60
2018-12-27T12:47:08.891Z,70.13
2018-12-27T12:49:37.824Z,71.07
2018-12-27T12:52:10.888Z,56.77
2018-12-27T12:54:41.180Z,101.57
2018-12-27T12:57:12.034Z,40.80
2018-12-27T12:59:40.695Z,47.87
2018-12-27T13:02:09.438Z,44.60
2018-12-27T13:04:38.153Z,30.07
2018-12-27T13:07:07.005Z,32.07
2018-12-27T13:09:39.133Z,33.47
2018-12-27T13:12:09.132Z,21.00
2018-12-27T13:14:38.790Z,13.17
2018-12-27T13:17:09.183Z,14.33
2018-12-27T13:19:39.305Z,15.57
2018-12-27T13:22:09.107Z,14.90
2018-12-27T13:24:45.194Z,20.77
2018-12-27T13:27:14.391Z,12.97
2018-12-27T13:29:48.371Z,11.83
2018-12-27T13:32:19.078Z,12.50
2018-12-27T13:34:51.510Z,14.93
2018-12-27T13:37:23.443Z,16.80
2018-12-27T13:39:52.656Z,13.97
2018-12-27T13:42:24.038Z,16.20
2018-12-27T13:44:53.350Z,23.33
2018-12-27T13:47:26.781Z,23.40
2018-12-27T13:50:10.193Z,18.37
2018-12-27T13:52:35.097Z,18.67
2018-12-27T13:55:08.990Z,19.83
2018-12-27T13:57:44.811Z,48.63
2018-12-27T14:00:18.539Z,46.63
2018-12-27T14:02:51.565Z,54.27
2018-12-27T14:05:21.553Z,62.60
2018-12-27T14:08:14.716Z,62.00
2018-12-27T14:10:49.465Z,55.73
2018-12-27T14:13:26.079Z,45.43
2018-12-27T14:15:54.901Z,34.83
2018-12-27T14:18:26.658Z,12.07
2018-12-27T14:20:55.164Z,20.03
2018-12-27T14:23:25.155Z,20.97
2018-12-27T14:25:54.329Z,16.27
2018-12-27T14:28:24.281Z,15.47
2018-12-27T14:30:54.420Z,19.37
2018-12-27T14:33:23.479Z,24.53
2018-12-27T14:35:53.350Z,54.83
2018-12-27T14:38:22.939Z,48.43
2018-12-27T14:40:56.648Z,39.80
2018-12-27T14:43:26.496Z,46.70
2018-12-27T14:45:58.718Z,41.00
2018-12-27T14:48:27.881Z,37.97
2018-12-27T14:50:57.705Z,158.63
2018-12-27T14:53:27.441Z,82.77
2018-12-27T14:56:03.383Z,78.97
2018-12-27T14:58:33.336Z,55.57
2018-12-27T15:01:01.755Z,58.63
2018-12-27T15:03:35.859Z,106.47
2018-12-27T15:06:04.270Z,102.33
2018-12-27T15:08:33.696Z,101.70
2018-12-27T15:11:02.382Z,84.43
2018-12-27T15:13:30.970Z,134.53
2018-12-27T15:15:59.645Z,51.97
2018-12-27T15:18:28.284Z,30.53
2018-12-27T15:20:56.798Z,24.10
2018-12-27T15:23:25.360Z,35.97
2018-12-27T15:25:53.920Z,27.43
2018-12-27T15:28:22.368Z,25.43
2018-12-27T15:30:50.775Z,28.10
2018-12-27T15:33:19.186Z,32.00
2018-12-27T15:35:48.449Z,34.83
2018-12-27T15:38:17.324Z,25.67
2018-12-27T15:40:45.806Z,38.70
2018-12-27T15:43:14.626Z,82.47
2018-12-27T15:45:43.034Z,105.23
2018-12-27T15:48:11.431Z,75.27
2018-12-27T15:50:40.288Z,85.10
2018-12-27T15:53:08.977Z,83.57
2018-12-27T15:55:37.561Z,63.77
2018-12-27T15:58:06.242Z,53.97
2018-12-27T16:00:35.297Z,67.23
2018-12-27T16:03:03.711Z,135.37
2018-12-27T16:05:32.153Z,119.60
2018-12-27T16:08:00.764Z,126.23
2018-12-27T16:10:29.426Z,141.57
2018-12-27T16:12:58.387Z,136.67
2018-12-27T16:15:26.784Z,149.47
2018-12-27T16:17:58.404Z,119.67
2018-12-27T16:20:27.440Z,129.23
2018-12-27T16:22:55.762Z,146.87
2018-12-27T16:25:24.332Z,141.33
2018-12-27T16:27:52.757Z,117.47
2018-12-27T16:30:21.365Z,81.20
2018-12-27T16:32:50.083Z,40.50
2018-12-27T16:35:19.501Z,26.03
2018-12-27T16:37:48.315Z,23.37
2018-12-27T16:40:17.246Z,24.20
2018-12-27T16:42:46.013Z,22.00
2018-12-27T16:45:14.415Z,99.23
2018-12-27T16:47:43.462Z,171.10
2018-12-27T16:50:11.911Z,200.10
2018-12-27T16:52:40.421Z,166.57
2018-12-27T16:55:09.030Z,133.77
2018-12-27T16:57:37.560Z,38.63
2018-12-27T17:00:08.069Z,39.23
2018-12-27T17:02:36.756Z,43.57
2018-12-27T17:05:06.225Z,24.17
2018-12-27T17:07:35.163Z,23.23
2018-12-27T17:10:03.854Z,27.53
2018-12-27T17:12:32.913Z,23.80
2018-12-27T17:15:04.581Z,26.50
2018-12-27T17:17:33.008Z,28.33
2018-12-27T17:20:01.722Z,31.23
2018-12-27T17:22:32.626Z,43.83
2018-12-27T17:25:01.434Z,37.43
2018-12-27T17:27:31.717Z,24.60
2018-12-27T17:30:00.648Z,31.00
2018-12-27T17:32:29.270Z,23.77
2018-12-27T17:34:58.015Z,75.80
2018-12-27T17:37:26.827Z,25.33
2018-12-27T17:39:55.478Z,28.10
2018-12-27T17:42:24.140Z,26.77
2018-12-27T17:44:52.893Z,27.33
2018-12-27T17:47:21.329Z,29.17
2018-12-27T17:49:49.911Z,152.43
2018-12-27T17:52:18.604Z,169.13
2018-12-27T17:54:47.268Z,173.83
2018-12-27T17:57:15.798Z,171.90
2018-12-27T17:59:44.389Z,161.40
2018-12-27T18:02:12.951Z,141.90
2018-12-27T18:04:42.000Z,130.80
2018-12-27T18:07:11.257Z,139.30
2018-12-27T18:09:39.776Z,133.23
2018-12-27T18:12:08.943Z,164.83
2018-12-27T18:14:38.063Z,155.17
2018-12-27T18:17:06.526Z,141.37
2018-12-27T18:19:35.180Z,86.43
2018-12-27T18:22:04.116Z,111.37
2018-12-27T18:24:34.178Z,57.30
2018-12-27T18:27:02.562Z,56.70
2018-12-27T18:29:35.699Z,33.33
2018-12-27T18:32:08.237Z,33.60
2018-12-27T18:37:37.678Z,31.03
2018-12-27T18:40:12.974Z,47.33
2018-12-27T18:42:46.199Z,64.87
2018-12-27T18:45:19.201Z,49.37
2018-12-27T18:47:50.499Z,56.93
2018-12-27T18:50:19.553Z,67.97
2018-12-27T18:52:48.073Z,66.53
2018-12-27T18:55:20.255Z,67.07
2018-12-27T18:57:47.136Z,40.43
2018-12-27T19:00:15.614Z,30.63
2018-12-27T19:02:44.036Z,40.50
2018-12-27T19:05:12.796Z,39.73
2018-12-27T19:07:45.082Z,43.40
2018-12-27T19:10:11.888Z,40.13
2018-12-27T19:13:03.390Z,34.63
2018-12-27T19:15:34.272Z,67.47
2018-12-27T19:18:05.050Z,96.80
2018-12-27T19:20:34.795Z,63.43
2018-12-27T19:23:13.269Z,51.30
2018-12-27T19:25:41.717Z,60.87
2018-12-27T19:28:10.787Z,52.83
2018-12-27T19:30:39.940Z,51.80
2018-12-27T19:33:08.323Z,31.30
2018-12-27T19:35:37.338Z,40.63
2018-12-27T19:38:06.096Z,56.70
2018-12-27T19:40:34.911Z,53.50
2018-12-27T19:43:03.364Z,71.33
2018-12-27T19:45:31.885Z,66.57
2018-12-27T19:48:00.805Z,41.93
2018-12-27T19:50:29.393Z,42.77
2018-12-27T19:52:57.818Z,85.20
2018-12-27T19:55:26.350Z,110.93
2018-12-27T19:57:54.741Z,22.90
2018-12-27T20:00:25.919Z,28.73
2018-12-27T20:02:54.658Z,24.40
2018-12-27T20:05:23.299Z,23.90
2018-12-27T20:07:59.061Z,27.27
2018-12-27T20:10:22.377Z,30.87
2018-12-27T20:12:50.878Z,37.33
2018-12-27T20:15:22.304Z,50.37
2018-12-27T20:17:50.866Z,75.57
2018-12-27T20:20:20.239Z,112.70
2018-12-27T20:22:49.274Z,110.93
2018-12-27T20:25:17.945Z,124.73
2018-12-27T20:27:48.148Z,120.97
2018-12-27T20:30:16.825Z,113.03
2018-12-27T20:32:45.389Z,147.57
2018-12-27T20:35:13.913Z,131.17
2018-12-27T20:37:43.941Z,100.70
2018-12-27T20:40:12.576Z,52.23
2018-12-27T20:42:41.580Z,62.60
2018-12-27T20:45:13.363Z,43.80
2018-12-27T20:47:42.048Z,47.40
2018-12-27T20:50:10.932Z,55.93
2018-12-27T20:52:39.762Z,54.17
2018-12-27T20:55:08.916Z,38.03
2018-12-27T20:57:37.761Z,42.13
2018-12-27T21:00:07.445Z,29.93
2018-12-27T21:02:37.434Z,29.40
2018-12-27T21:05:06.140Z,32.00
2018-12-27T21:07:34.816Z,41.70
2018-12-27T21:10:03.553Z,51.37
2018-12-27T21:12:32.373Z,52.70
2018-12-27T21:15:00.914Z,52.90
2018-12-27T21:17:29.745Z,43.50
2018-12-27T21:19:58.161Z,45.40
2018-12-27T21:22:27.071Z,46.07
2018-12-27T21:24:55.812Z,38.27
2018-12-27T21:27:25.100Z,29.07
2018-12-27T21:29:53.710Z,33.47
2018-12-27T21:32:22.464Z,32.17
2018-12-27T21:34:53.917Z,24.63
2018-12-27T21:37:22.619Z,23.80
2018-12-27T21:39:51.100Z,20.73
2018-12-27T21:42:19.570Z,40.93
2018-12-27T21:44:48.689Z,35.80
2018-12-27T21:47:17.332Z,33.63
2018-12-27T21:49:45.782Z,31.17
2018-12-27T21:52:14.811Z,31.87
2018-12-27T21:54:43.192Z,31.17
2018-12-27T21:57:11.670Z,28.60
2018-12-27T21:59:40.741Z,30.70
2018-12-27T22:02:09.362Z,36.10
2018-12-27T22:04:37.979Z,40.37
2018-12-27T22:07:06.782Z,50.07
2018-12-27T22:09:35.456Z,62.80
2018-12-27T22:12:05.631Z,65.03
2018-12-27T22:14:34.569Z,28.30
2018-12-27T22:17:04.164Z,29.70
2018-12-27T22:19:32.664Z,43.70
2018-12-27T22:22:01.098Z,26.97
2018-12-27T22:24:29.620Z,26.27
2018-12-27T22:26:58.239Z,26.97
2018-12-27T22:29:26.684Z,24.07
2018-12-27T22:31:56.891Z,21.80
2018-12-27T22:34:25.334Z,31.90
2018-12-27T22:36:53.851Z,37.97
2018-12-27T22:39:23.033Z,33.53
2018-12-27T22:41:53.488Z,32.17
2018-12-27T22:44:21.919Z,36.03
2018-12-27T22:46:50.307Z,36.00
2018-12-27T22:49:18.769Z,34.30
2018-12-27T22:51:48.562Z,26.77
2018-12-27T22:54:17.021Z,25.83
2018-12-27T22:56:45.664Z,26.57
2018-12-27T22:59:14.143Z,24.77
2018-12-27T23:01:42.728Z,22.23
2018-12-27T23:04:12.223Z,22.07
2018-12-27T23:06:40.743Z,21.87
2018-12-27T23:09:09.567Z,20.77
2018-12-27T23:11:38.307Z,21.97
2018-12-27T23:14:07.431Z,19.20
2018-12-27T23:16:35.901Z,20.13
2018-12-27T23:19:04.294Z,23.27
2018-12-27T23:21:32.937Z,20.57
2018-12-27T23:24:01.682Z,19.60
2018-12-27T23:26:30.298Z,25.73
2018-12-27T23:28:59.596Z,21.47
2018-12-27T23:31:27.989Z,23.27
2018-12-27T23:33:56.383Z,85.87
2018-12-27T23:36:24.980Z,43.83
2018-12-27T23:38:53.451Z,27.03
2018-12-27T23:41:21.975Z,18.03
2018-12-27T23:43:50.697Z,23.60
2018-12-27T23:46:19.548Z,36.07
2018-12-27T23:48:48.017Z,21.53
2018-12-27T23:51:17.120Z,41.07
2018-12-27T23:53:45.655Z,30.90
2018-12-27T23:56:14.049Z,43.80
2018-12-27T23:58:42.903Z,48.17
